createdAt,value
2018-08-22T00:02:37.209Z,19.30
2018-08-22T00:05:17.753Z,19.20
2018-08-22T00:08:00.344Z,19.20
2018-08-22T00:10:41.003Z,19.10
2018-08-22T00:13:21.307Z,19.10
2018-08-22T00:16:02.371Z,19.10
2018-08-22T00:18:42.655Z,19.10
2018-08-22T00:21:23.048Z,19.00
2018-08-22T00:24:03.448Z,19.00
2018-08-22T00:26:43.863Z,19.00
2018-08-22T00:29:24.443Z,19.00
2018-08-22T00:32:04.829Z,19.00
2018-08-22T00:34:45.338Z,19.00
2018-08-22T00:37:26.580Z,19.00
2018-08-22T00:40:07.016Z,19.00
2018-08-22T00:42:47.349Z,19.00
2018-08-22T00:45:31.088Z,18.90
2018-08-22T00:48:11.624Z,18.90
2018-08-22T00:50:52.103Z,19.00
2018-08-22T00:53:32.548Z,19.00
2018-08-22T00:56:12.895Z,19.00
2018-08-22T00:58:53.223Z,18.80
2018-08-22T01:01:33.657Z,18.80
2018-08-22T01:04:14.639Z,18.60
2018-08-22T01:06:56.898Z,18.50
2018-08-22T01:09:37.288Z,18.60
2018-08-22T01:12:17.775Z,18.70
2018-08-22T01:15:00.548Z,18.70
2018-08-22T01:17:40.889Z,18.70
2018-08-22T01:20:21.552Z,18.70
2018-08-22T01:23:02.335Z,18.70
2018-08-22T01:25:42.676Z,18.70
2018-08-22T01:28:23.170Z,18.70
2018-08-22T01:31:03.905Z,18.70
2018-08-22T01:33:44.396Z,18.60
2018-08-22T01:36:24.935Z,18.60
2018-08-22T01:39:07.456Z,18.50
2018-08-22T01:41:47.984Z,18.40
2018-08-22T01:44:30.535Z,18.40
2018-08-22T01:47:11.000Z,18.50
2018-08-22T01:49:51.560Z,18.50
2018-08-22T01:52:32.320Z,18.50
2018-08-22T01:55:13.628Z,18.50
2018-08-22T01:57:54.112Z,18.50
2018-08-22T02:00:34.711Z,18.40
2018-08-22T02:03:15.325Z,18.40
2018-08-22T02:05:56.549Z,18.30
2018-08-22T02:08:37.060Z,18.30
2018-08-22T02:11:17.595Z,18.30
2018-08-22T02:14:00.496Z,18.30
2018-08-22T02:16:41.219Z,18.30
2018-08-22T02:45:24.528Z,18.00
2018-08-22T02:48:06.431Z,18.00
2018-08-22T02:50:46.827Z,18.00
2018-08-22T02:53:27.444Z,18.00
2018-08-22T02:56:08.066Z,18.00
2018-08-22T02:58:48.654Z,18.00
2018-08-22T03:01:29.136Z,17.90
2018-08-22T03:04:09.640Z,17.90
2018-08-22T03:06:50.411Z,17.90
2018-08-22T03:09:32.232Z,17.90
2018-08-22T03:12:12.648Z,17.90
2018-08-22T03:14:53.158Z,17.80
2018-08-22T03:17:35.013Z,17.80
2018-08-22T03:20:15.563Z,17.70
2018-08-22T03:22:56.045Z,17.70
2018-08-22T03:25:36.619Z,17.70
2018-08-22T03:28:17.156Z,17.70
2018-08-22T03:30:57.571Z,17.70
2018-08-22T03:33:37.905Z,17.70
2018-08-22T03:36:18.791Z,17.70
2018-08-22T03:38:59.206Z,17.70
2018-08-22T03:41:40.005Z,17.70
2018-08-22T03:44:20.749Z,17.70
2018-08-22T03:47:04.175Z,17.60
2018-08-22T03:49:44.688Z,17.60
2018-08-22T03:52:25.260Z,17.60
2018-08-22T03:55:07.124Z,17.60
2018-08-22T03:57:47.634Z,17.50
2018-08-22T04:00:28.170Z,17.50
2018-08-22T04:03:08.864Z,17.50
2018-08-22T04:05:49.286Z,17.50
2018-08-22T04:08:31.068Z,17.50
2018-08-22T04:11:11.516Z,17.50
2018-08-22T04:13:51.836Z,17.50
2018-08-22T04:16:35.460Z,17.50
2018-08-22T04:19:15.748Z,17.50
2018-08-22T04:21:56.265Z,17.50
2018-08-22T04:24:36.646Z,17.50
2018-08-22T04:27:17.212Z,17.50
2018-08-22T04:29:57.700Z,17.50
2018-08-22T04:32:38.535Z,17.60
2018-08-22T04:35:19.055Z,17.60
2018-08-22T04:38:01.476Z,17.60
2018-08-22T04:40:42.064Z,17.60
2018-08-22T04:43:23.475Z,17.70
2018-08-22T04:46:05.634Z,17.80
2018-08-22T04:48:46.072Z,17.80
2018-08-22T04:51:26.600Z,17.80
2018-08-22T04:54:07.160Z,17.90
2018-08-22T04:56:47.969Z,17.90
2018-08-22T04:59:28.558Z,18.00
2018-08-22T05:02:09.140Z,18.00
2018-08-22T05:04:49.549Z,18.10
2018-08-22T05:07:30.980Z,18.10
2018-08-22T05:10:12.176Z,18.10
2018-08-22T05:12:52.663Z,18.20
2018-08-22T05:15:35.459Z,18.20
2018-08-22T05:18:15.960Z,18.20
2018-08-22T05:20:56.523Z,18.30
2018-08-22T05:23:36.905Z,18.30
2018-08-22T05:26:17.479Z,18.40
2018-08-22T05:28:57.983Z,18.40
2018-08-22T05:31:38.483Z,18.50
2018-08-22T05:34:18.991Z,18.50
2018-08-22T05:37:00.902Z,18.50
2018-08-22T05:39:41.333Z,18.50
2018-08-22T05:42:21.839Z,18.60
2018-08-22T05:45:04.938Z,18.60
2018-08-22T05:47:45.431Z,18.70
2018-08-22T05:50:25.897Z,18.70
2018-08-22T05:53:07.715Z,18.70
2018-08-22T05:55:48.033Z,18.80
2018-08-22T05:58:28.596Z,18.90
2018-08-22T06:01:09.071Z,18.90
2018-08-22T06:03:49.527Z,19.00
2018-08-22T06:06:31.360Z,19.00
2018-08-22T06:09:13.045Z,19.00
2018-08-22T06:11:53.473Z,19.10
2018-08-22T06:14:35.638Z,19.10
2018-08-22T06:17:16.128Z,19.10
2018-08-22T06:19:56.660Z,19.20
2018-08-22T06:22:37.180Z,19.30
2018-08-22T06:25:17.772Z,19.40
2018-08-22T06:27:58.377Z,19.40
2018-08-22T06:30:39.557Z,19.50
2018-08-22T06:33:21.980Z,19.60
2018-08-22T06:36:05.582Z,19.70
2018-08-22T06:38:46.127Z,19.70
2018-08-22T06:41:26.771Z,19.80
2018-08-22T06:44:37.963Z,19.80
2018-08-22T06:47:18.598Z,19.90
2018-08-22T06:49:59.165Z,20.00
2018-08-22T06:52:39.770Z,20.10
2018-08-22T06:55:20.400Z,20.20
2018-08-22T06:58:01.883Z,20.30
2018-08-22T07:00:42.382Z,20.40
2018-08-22T07:03:22.942Z,20.60
2018-08-22T07:06:05.009Z,21.00
2018-08-22T07:08:45.595Z,21.50
2018-08-22T07:11:26.166Z,21.90
2018-08-22T07:14:06.984Z,22.30
2018-08-22T07:16:47.598Z,22.60
2018-08-22T07:19:28.090Z,23.00
2018-08-22T07:22:08.621Z,23.30
2018-08-22T07:24:49.242Z,23.60
2018-08-22T07:27:31.584Z,23.70
2018-08-22T07:30:12.390Z,24.00
2018-08-22T07:32:52.923Z,24.30
2018-08-22T07:35:35.773Z,24.40
2018-08-22T07:38:16.933Z,24.60
2018-08-22T07:40:57.578Z,24.80
2018-08-22T07:43:38.139Z,25.20
2018-08-22T07:46:18.631Z,25.30
2018-08-22T07:48:59.239Z,25.50
2018-08-22T07:51:39.742Z,25.80
2018-08-22T07:54:20.399Z,26.10
2018-08-22T07:57:02.367Z,26.40
2018-08-22T07:59:44.010Z,26.50
2018-08-22T08:02:25.074Z,26.60
2018-08-22T08:05:07.355Z,26.70
2018-08-22T08:07:47.856Z,26.90
2018-08-22T08:10:32.059Z,26.90
2018-08-22T08:13:18.372Z,26.80
2018-08-22T08:16:01.439Z,26.80
2018-08-22T08:18:41.962Z,27.00
2018-08-22T08:21:22.481Z,27.10
2018-08-22T08:24:06.358Z,27.10
2018-08-22T08:26:46.971Z,27.10
2018-08-22T08:29:27.590Z,27.30
2018-08-22T08:32:08.491Z,27.20
2018-08-22T08:34:49.078Z,27.50
2018-08-22T08:37:31.298Z,27.70
2018-08-22T08:40:11.858Z,27.90
2018-08-22T08:42:52.368Z,27.80
2018-08-22T08:45:35.939Z,27.40
2018-08-22T08:48:16.842Z,27.50
2018-08-22T08:50:57.383Z,27.60
2018-08-22T08:53:37.905Z,27.60
2018-08-22T08:56:18.475Z,27.50
2018-08-22T08:58:59.042Z,27.70
2018-08-22T09:01:39.614Z,27.70
2018-08-22T09:04:20.185Z,27.70
2018-08-22T09:07:02.121Z,27.70
2018-08-22T09:09:42.701Z,27.50
2018-08-22T09:12:23.882Z,27.60
2018-08-22T09:15:06.102Z,27.50
2018-08-22T09:17:46.592Z,27.50
2018-08-22T09:20:27.307Z,27.40
2018-08-22T09:23:07.985Z,27.50
2018-08-22T09:25:48.481Z,27.20
2018-08-22T09:28:28.989Z,27.10
2018-08-22T09:31:09.580Z,27.10
2018-08-22T09:33:50.732Z,27.00
2018-08-22T09:36:36.765Z,26.80
2018-08-22T09:39:17.307Z,26.90
2018-08-22T09:41:58.052Z,26.80
2018-08-22T09:44:38.611Z,26.50
2018-08-22T09:47:20.799Z,26.60
2018-08-22T09:50:03.981Z,26.70
2018-08-22T09:52:44.408Z,26.70
2018-08-22T09:55:25.110Z,26.60
2018-08-22T09:58:06.756Z,26.60
2018-08-22T10:00:55.961Z,26.90
2018-08-22T10:03:53.594Z,27.10
2018-08-22T10:06:42.250Z,27.10
2018-08-22T10:09:24.274Z,27.10
2018-08-22T10:12:05.895Z,27.10
2018-08-22T10:14:46.535Z,27.30
2018-08-22T10:17:27.175Z,27.30
2018-08-22T10:20:08.033Z,27.20
2018-08-22T10:22:48.647Z,27.30
2018-08-22T10:25:29.180Z,27.20
2018-08-22T10:28:10.155Z,27.20
2018-08-22T10:30:50.675Z,27.20
2018-08-22T10:33:34.857Z,27.40
2018-08-22T10:36:15.605Z,27.20
2018-08-22T10:38:56.172Z,27.00
2018-08-22T10:41:36.871Z,27.10
2018-08-22T10:44:17.411Z,27.20
2018-08-22T10:46:58.195Z,27.30
2018-08-22T10:49:38.758Z,27.40
2018-08-22T10:52:19.255Z,27.30
2018-08-22T10:55:01.388Z,27.20
2018-08-22T10:57:41.819Z,27.20
2018-08-22T11:00:22.503Z,27.00
2018-08-22T11:03:05.452Z,26.80
2018-08-22T11:05:46.018Z,26.80
2018-08-22T11:08:26.508Z,26.90
2018-08-22T11:11:07.126Z,26.90
2018-08-22T11:13:47.732Z,26.90
2018-08-22T11:16:28.387Z,26.80
2018-08-22T11:19:08.897Z,26.80
2018-08-22T11:22:06.374Z,26.80
2018-08-22T11:25:04.825Z,26.80
2018-08-22T11:28:04.080Z,26.70
2018-08-22T11:31:02.102Z,26.60
2018-08-22T11:34:01.067Z,26.50
2018-08-22T11:36:44.063Z,26.50
2018-08-22T11:39:24.461Z,26.50
2018-08-22T11:42:06.870Z,26.60
2018-08-22T11:44:47.532Z,26.80
2018-08-22T11:47:27.985Z,26.60
2018-08-22T11:50:08.535Z,26.50
2018-08-22T11:52:49.101Z,26.60
2018-08-22T11:55:31.123Z,26.60
2018-08-22T11:58:12.171Z,26.40
2018-08-22T12:00:52.590Z,26.40
2018-08-22T12:03:34.919Z,26.60
2018-08-22T12:06:15.372Z,26.50
2018-08-22T12:08:55.971Z,26.50
2018-08-22T12:11:37.931Z,26.50
2018-08-22T12:14:18.419Z,26.50
2018-08-22T12:16:59.046Z,26.50
2018-08-22T12:19:39.492Z,26.60
2018-08-22T12:22:19.930Z,26.70
2018-08-22T12:25:04.083Z,26.70
2018-08-22T12:27:44.975Z,26.60
2018-08-22T12:30:25.600Z,26.70
2018-08-22T12:33:06.841Z,26.60
2018-08-22T12:35:47.930Z,26.70
2018-08-22T12:38:28.338Z,26.80
2018-08-22T12:41:09.184Z,26.80
2018-08-22T12:43:49.683Z,26.80
2018-08-22T12:46:31.702Z,26.90
2018-08-22T12:49:12.474Z,26.90
2018-08-22T12:51:53.127Z,26.80
2018-08-22T12:54:35.275Z,26.90
2018-08-22T12:57:16.091Z,26.80
2018-08-22T12:59:56.942Z,26.80
2018-08-22T13:02:37.593Z,26.90
2018-08-22T13:05:18.083Z,26.90
2018-08-22T13:07:58.598Z,26.90
2018-08-22T13:10:39.187Z,26.90
2018-08-22T13:13:19.791Z,26.90
2018-08-22T13:16:13.590Z,26.80
2018-08-22T13:18:54.318Z,26.80
2018-08-22T13:21:35.859Z,26.80
2018-08-22T13:24:16.463Z,26.80
2018-08-22T13:26:56.982Z,26.80
2018-08-22T13:29:37.899Z,26.80
2018-08-22T13:32:18.419Z,26.70
2018-08-22T13:34:59.272Z,26.70
2018-08-22T13:37:39.895Z,26.70
2018-08-22T13:40:20.467Z,26.70
2018-08-22T13:43:02.418Z,26.80
2018-08-22T13:45:43.527Z,26.80
2018-08-22T13:48:24.168Z,26.90
2018-08-22T13:51:06.500Z,26.80
2018-08-22T13:53:47.020Z,26.80
2018-08-22T13:56:28.105Z,26.90
2018-08-22T13:59:08.639Z,26.90
2018-08-22T14:01:49.283Z,26.90
2018-08-22T14:04:29.846Z,27.60
2018-08-22T14:07:10.409Z,27.50
2018-08-22T14:09:51.090Z,27.20
2018-08-22T14:12:32.645Z,27.20
2018-08-22T14:15:13.176Z,27.00
2018-08-22T14:17:53.831Z,27.10
2018-08-22T14:20:37.226Z,27.70
2018-08-22T14:23:17.839Z,28.00
2018-08-22T14:25:58.340Z,28.20
2018-08-22T14:28:38.912Z,27.80
2018-08-22T14:31:19.344Z,27.40
2018-08-22T14:33:59.865Z,27.20
2018-08-22T14:36:40.431Z,27.10
2018-08-22T14:39:21.057Z,26.90
2018-08-22T14:42:02.727Z,26.90
2018-08-22T14:44:43.300Z,26.90
2018-08-22T14:47:23.816Z,27.00
2018-08-22T14:50:06.708Z,27.00
2018-08-22T14:52:47.176Z,26.90
2018-08-22T14:55:27.760Z,26.80
2018-08-22T14:58:08.674Z,26.70
2018-08-22T15:00:49.077Z,26.60
2018-08-22T15:03:29.745Z,26.60
2018-08-22T15:06:10.065Z,26.50
2018-08-22T15:08:55.252Z,26.50
2018-08-22T15:11:37.038Z,26.40
2018-08-22T15:14:17.525Z,26.40
2018-08-22T15:16:58.071Z,26.40
2018-08-22T15:19:38.779Z,26.40
2018-08-22T15:22:19.257Z,26.40
2018-08-22T15:24:59.808Z,26.30
2018-08-22T15:27:40.435Z,26.20
2018-08-22T15:30:21.124Z,26.20
2018-08-22T15:33:02.857Z,26.20
2018-08-22T15:35:43.327Z,26.20
2018-08-22T15:38:23.931Z,26.10
2018-08-22T15:41:06.980Z,26.00
2018-08-22T15:43:47.474Z,26.00
2018-08-22T15:46:27.993Z,26.00
2018-08-22T15:49:30.269Z,26.00
2018-08-22T15:52:06.801Z,25.90
2018-08-22T15:55:06.678Z,25.90
2018-08-22T15:57:58.222Z,25.80
2018-08-22T16:00:48.300Z,25.70
2018-08-22T16:03:28.804Z,25.70
2018-08-22T16:06:11.216Z,25.60
2018-08-22T16:08:51.763Z,25.50
2018-08-22T16:11:32.845Z,25.50
2018-08-22T16:14:13.432Z,25.50
2018-08-22T16:16:53.825Z,25.40
2018-08-22T16:19:36.687Z,25.40
2018-08-22T16:22:17.184Z,25.40
2018-08-22T16:24:58.692Z,25.40
2018-08-22T16:27:43.231Z,25.30
2018-08-22T16:30:23.838Z,25.20
2018-08-22T16:33:07.540Z,25.20
2018-08-22T16:35:47.973Z,25.10
2018-08-22T16:38:28.492Z,25.10
2018-08-22T16:41:08.904Z,25.10
2018-08-22T16:43:50.497Z,25.00
2018-08-22T16:46:31.085Z,24.90
2018-08-22T16:49:11.681Z,24.90
2018-08-22T16:51:52.135Z,24.80
2018-08-22T16:54:34.019Z,24.80
2018-08-22T16:57:14.484Z,24.70
2018-08-22T16:59:55.512Z,24.80
2018-08-22T17:02:37.362Z,24.80
2018-08-22T17:05:18.024Z,24.80
2018-08-22T17:07:59.316Z,24.70
2018-08-22T17:10:56.823Z,24.70
2018-08-22T17:13:46.212Z,24.60
2018-08-22T17:16:26.900Z,24.60
2018-08-22T17:19:08.951Z,24.50
2018-08-22T17:21:49.483Z,24.50
2018-08-22T17:24:29.984Z,24.40
2018-08-22T17:27:10.420Z,24.40
2018-08-22T17:29:50.835Z,24.40
2018-08-22T17:32:32.885Z,24.40
2018-08-22T17:35:14.102Z,24.30
2018-08-22T17:37:59.636Z,24.30
2018-08-22T17:40:41.551Z,24.30
2018-08-22T17:43:23.457Z,24.30
2018-08-22T17:46:08.435Z,24.20
2018-08-22T17:48:48.892Z,24.20
2018-08-22T17:51:29.620Z,24.20
2018-08-22T17:54:10.004Z,24.20
2018-08-22T17:57:26.024Z,24.20
2018-08-22T18:00:07.536Z,24.20
2018-08-22T18:02:49.376Z,24.20
2018-08-22T18:05:32.878Z,24.10
2018-08-22T18:08:13.489Z,24.10
2018-08-22T18:10:53.921Z,24.10
2018-08-22T18:13:36.997Z,24.10
2018-08-22T18:16:17.412Z,24.10
2018-08-22T18:18:57.767Z,24.00
2018-08-22T18:21:44.805Z,24.00
2018-08-22T18:24:25.430Z,23.90
2018-08-22T18:27:13.530Z,23.90
2018-08-22T18:29:54.134Z,23.80
2018-08-22T18:32:37.877Z,23.80
2018-08-22T18:35:18.500Z,23.70
2018-08-22T18:37:59.028Z,23.70
2018-08-22T18:40:39.672Z,23.60
2018-08-22T18:43:20.362Z,23.50
2018-08-22T18:46:06.241Z,23.50
2018-08-22T18:48:46.948Z,23.40
2018-08-22T18:51:27.545Z,23.40
2018-08-22T18:54:08.791Z,23.30
2018-08-22T18:56:49.120Z,23.30
2018-08-22T18:59:29.902Z,23.20
2018-08-22T19:02:10.448Z,23.20
2018-08-22T19:04:51.916Z,23.10
2018-08-22T19:07:33.343Z,23.10
2018-08-22T19:10:13.920Z,23.00
2018-08-22T19:13:03.551Z,23.00
2018-08-22T19:15:53.858Z,23.00
2018-08-22T19:18:37.259Z,22.90
2018-08-22T19:21:17.700Z,22.90
2018-08-22T19:24:04.205Z,22.80
2018-08-22T19:26:45.293Z,22.80
2018-08-22T19:29:25.720Z,22.70
2018-08-22T19:32:07.709Z,22.70
2018-08-22T19:34:52.373Z,22.70
2018-08-22T19:37:34.291Z,22.70
2018-08-22T19:40:14.643Z,22.70
2018-08-22T19:42:55.700Z,22.70
2018-08-22T19:45:37.880Z,22.70
2018-08-22T19:48:18.276Z,22.60
2018-08-22T19:50:59.128Z,22.60
2018-08-22T19:53:55.971Z,22.60
2018-08-22T19:56:37.907Z,22.50
2018-08-22T19:59:18.584Z,22.50
2018-08-22T20:01:59.168Z,22.40
2018-08-22T20:04:44.337Z,22.40
2018-08-22T20:07:25.034Z,22.40
2018-08-22T20:10:08.917Z,22.30
2018-08-22T20:12:51.688Z,22.30
2018-08-22T20:15:32.280Z,22.30
2018-08-22T20:18:12.856Z,22.30
2018-08-22T20:20:53.296Z,22.30
2018-08-22T20:23:35.128Z,22.30
2018-08-22T20:26:15.700Z,22.30
2018-08-22T20:28:57.471Z,22.30
2018-08-22T20:31:39.228Z,22.30
2018-08-22T20:34:19.808Z,22.30
2018-08-22T20:37:00.772Z,22.20
2018-08-22T20:39:41.317Z,22.20
2018-08-22T20:42:21.692Z,22.20
2018-08-22T20:45:04.455Z,22.20
2018-08-22T20:47:45.892Z,22.20
2018-08-22T20:50:26.445Z,22.20
2018-08-22T20:53:10.185Z,22.20
2018-08-22T20:55:50.576Z,22.20
2018-08-22T20:58:32.184Z,22.20
2018-08-22T21:01:12.632Z,22.20
2018-08-22T21:03:53.142Z,22.20
2018-08-22T21:06:34.350Z,22.20
2018-08-22T21:09:14.792Z,22.20
2018-08-22T21:11:58.472Z,22.20
2018-08-22T21:14:40.119Z,22.20
2018-08-22T21:17:20.662Z,22.20
2018-08-22T21:20:10.467Z,22.20
2018-08-22T21:22:51.384Z,22.20
2018-08-22T21:25:32.076Z,22.20
2018-08-22T21:28:13.351Z,22.30
2018-08-22T21:31:00.173Z,22.30
2018-08-22T21:33:40.775Z,22.30
2018-08-22T21:36:21.341Z,22.30
2018-08-22T21:39:01.801Z,22.30
2018-08-22T21:41:43.811Z,22.20
2018-08-22T21:44:24.828Z,22.20
2018-08-22T21:47:09.268Z,22.20
2018-08-22T21:49:49.753Z,22.20
2018-08-22T21:52:50.493Z,22.20
2018-08-22T21:55:37.971Z,22.10
2018-08-22T21:58:18.484Z,22.10
2018-08-22T22:00:59.064Z,22.10
2018-08-22T22:03:40.618Z,22.00
2018-08-22T22:06:21.076Z,22.00
2018-08-22T22:09:02.284Z,22.00
2018-08-22T22:11:42.688Z,22.00
2018-08-22T22:14:26.148Z,22.00
2018-08-22T22:17:08.650Z,22.00
2018-08-22T22:19:49.224Z,22.00
2018-08-22T22:22:29.855Z,22.00
2018-08-22T22:25:10.728Z,22.00
2018-08-22T22:30:39.084Z,22.00
2018-08-22T22:33:19.457Z,22.00
2018-08-22T22:35:59.834Z,22.00
2018-08-22T22:38:40.469Z,22.00
2018-08-22T22:41:21.656Z,21.90
2018-08-22T22:44:02.207Z,21.90
2018-08-22T22:46:42.820Z,21.90
2018-08-22T22:49:23.390Z,21.80
2018-08-22T22:52:22.353Z,21.80
2018-08-22T22:55:04.747Z,21.80
2018-08-22T22:57:45.648Z,21.70
2018-08-22T23:00:26.208Z,21.70
2018-08-22T23:03:08.680Z,21.70
2018-08-22T23:05:49.033Z,21.70
2018-08-22T23:11:15.312Z,21.70
2018-08-22T23:13:56.029Z,21.70
2018-08-22T23:16:38.685Z,21.70
2018-08-22T23:19:19.696Z,21.70
2018-08-22T23:22:00.041Z,21.70
2018-08-22T23:24:40.623Z,21.70
2018-08-22T23:27:21.313Z,21.60
2018-08-22T23:30:01.736Z,21.60
2018-08-22T23:32:42.312Z,21.60
2018-08-22T23:35:24.767Z,21.60
2018-08-22T23:38:09.522Z,21.60
2018-08-22T23:40:50.005Z,21.50
2018-08-22T23:43:42.013Z,21.50
2018-08-22T23:46:22.420Z,21.50
2018-08-22T23:49:02.928Z,21.40
2018-08-22T23:51:43.624Z,21.40
2018-08-22T23:54:24.088Z,21.40
2018-08-22T23:57:05.787Z,21.40
2018-08-22T23:59:46.368Z,21.40
